Impacts METAR Board
IDs:

KBOS - Boston/Logan Intl, MA, US

Updated at: 0300 UTC 23 Sep 2018
Potential Impact None Slight Moderate High
Time 22/15Z 22/16Z 22/17Z 22/18Z 22/19Z 22/20Z 22/21Z 22/22Z 22/23Z 23/00Z 23/01Z 23/02Z 23/03Z
Temp69 69 70 71 70 69 69 66 66 64 62 61 60
Dewpt50 48 48 47 47 46 44 43 43 46 45 42 42
Altim30.06 30.08 30.09 30.10 30.11 30.13 30.13 30.16 30.17 30.20 30.21 30.22 30.22
VIS10 10 10 10 10 10 10 10 10 10 10 10 10
CIG130 130 130 250 250 250 210 210 210 220 250 250 250
CoverBKNBKNBKNBKNBKNBKNOVCOVCOVCOVCOVCBKNBKN
FltCatVFRVFRVFRVFRVFRVFRVFRVFRVFRVFRVFRVFRVFR
WX--------------------------
WDir330360330350320310290320320360350330340
WSpd12 15 9 6 11 11 9 10 8 9 6 7 5
WGst23 24 17 -- 18 -- -- -- -- -- -- -- --
Raw hourly METARs
KBOS 221454Z 33012G23KT 10SM FEW030 BKN130 BKN250 21/10 A3006 RMK AO2 SLP178 T02060100 51040
KBOS 221554Z 36015G24KT 10SM FEW030 BKN130 BKN250 21/09 A3008 RMK AO2 SLP185 T02060089
KBOS 221654Z 33009G17KT 10SM FEW030 BKN130 BKN250 21/09 A3009 RMK AO2 SLP189 T02110089
KBOS 221754Z 35006KT 10SM FEW045 FEW130 BKN250 22/08 A3010 RMK AO2 SLP193 T02170083 10222 20206 51015
KBOS 221854Z 32011G18KT 10SM FEW045 FEW150 BKN250 21/08 A3011 RMK AO2 SLP196 VIRGA ALQDS T02110083
KBOS 221954Z 31011KT 10SM FEW045 FEW150 BKN250 21/08 A3013 RMK AO2 SLP201 VIRGA ALQDS T02060078
KBOS 222054Z 29009KT 10SM FEW050 BKN210 OVC250 21/07 A3013 RMK AO2 SLP204 T02060067 51011
KBOS 222154Z 32010KT 10SM BKN210 OVC250 19/06 A3016 RMK AO2 SLP211 T01890061
KBOS 222254Z 32008KT 10SM BKN210 OVC250 19/06 A3017 RMK AO2 SLP217 T01890061
KBOS 222354Z 36009KT 10SM BKN220 OVC250 18/08 A3020 RMK AO2 SLP226 T01780078 10217 20178 53022
KBOS 230054Z 35006KT 10SM SCT210 OVC250 17/07 A3021 RMK AO2 SLP229 T01670072
KBOS 230154Z 33007KT 10SM FEW210 BKN250 16/06 A3022 RMK AO2 SLP232 T01610056
KBOS 230254Z 34005KT 10SM SCT210 BKN250 16/06 A3022 RMK AO2 SLP234 T01560056 51008



Page loaded:  03:06 UTC  |   08:06 PM Pacific  |   09:06 PM Mountain  |   10:06 PM Central  |   11:06 PM Eastern

 

ADVISORIES

FORECASTS

FORECASTS

OBSERVATIONS

USER TOOLS

ABOUT US